• Join FlightAware (Why Join?)
  • Login
  • US Flag 
12:26PM EDT


 

Airport Tracker/Info


-or-


 

Live Flight TrackerFlight Track Log ✈ EJA583 ✈ 17-Jul-2013 ✈ KMYV - KSTS

Flight Track Log - Related Links

Times and Time Zones

All times are in EDT time to prevent confusion due to time zone crossing. See the EJA583 flight status page for this flight to view local times or setup timezone preferences in your user account.

Time Position Orientation Groundspeed Altitude Reporting Facility
EDT Latitude Longitude Course Direction KTS MPH feet Rate Location/Type
01:38PM 39.0500 -121.5500 226° Southwest 194 223 1,800  Level Northern Cal TRACON
01:38PM 39.0167 -121.5833 218° Southwest 259 298 3,900 2,640 Climbing Northern Cal TRACON
01:39PM 39.0333 -121.6833 282° West 284 327 6,900 2,460 Climbing Northern Cal TRACON
01:41PM 39.0456 -121.8094 277° West 287 330 10,000 1,200 Climbing Oakland Center
01:42PM 39.0611 -121.9331 279° West 343 395 10,000 -60 Level Oakland Center
01:43PM 39.0216 -122.0657 226° Southwest  Level FlightAware Approximate
01:43PM 39.0367 -122.0744 257° West 353 406 9,900  Level Oakland Center
01:44PM 38.9714 -122.1658 227° Southwest 350 403 9,900  Level Oakland Center
01:45PM 38.9056 -122.2578 227° Southwest 351 404 9,900  Level Oakland Center
01:46PM 38.8347 -122.3411 223° Southwest 350 403 9,900  Level Oakland Center
01:47PM 38.7575 -122.4150 217° Southwest 347 399 9,900  Level Oakland Center
01:48PM 38.6856 -122.4856 217° Southwest 331 381 9,900 -420 Level Oakland Center
01:49PM 38.6139 -122.5286 205° Southwest 300 345 9,100 -1,500 Descending Oakland Center
01:50PM 38.5272 -122.5650 198° South 276 318 6,900 -1,980 Descending Oakland Center
01:51PM 38.4575 -122.5844 192° South 260 299 5,100 -960 Descending Oakland Center
01:52PM 38.3975 -122.6019 193° South 229 264 5,000 -240 Descending Oakland Center
01:53PM 38.3386 -122.6200 194° South 220 253 4,700 -300 Descending Oakland Center
01:54PM 38.2833 -122.6367 193° South 211 243 4,500 -120 Descending Oakland Center
01:55PM 38.2656 -122.6839 244° Southwest 210 242 4,500 -300 Level Oakland Center
01:56PM 38.3183 -122.7097 339° North 207 238 3,900 -840 Descending Oakland Center
01:57PM 38.3767 -122.7367 340° North 195 224 2,800 -1,020 Descending Oakland Center
01:58PM 38.4178 -122.7614 335° Northwest 178 205 1,900 -840 Descending Oakland Center
01:59PM 38.4525 -122.7797 338° Northwest 156 180 1,200 -660 Descending Oakland Center
02:00PM 38.4850 -122.7969 337° Northwest 139 160 600 -600 Descending Oakland Center